Latest Weather Observations for Moree

IDN60801

Issued at 10:35 pm EST Thursday 24 April 2014 (issued every 30 minutes, with the page automatically refreshed every 10 minutes)

About weather observations | Map of weather stations | Latest weather observations for NSW | Other Formats
Station Details ID: 053115 Name: MOREE AERO Lat: -29.49 Lon: 149.85 Height: 213.0 m
Data from the previous 72 hours. | See also: Recent months at Moree
Date/Time
EST
Temp
°C
App
Temp
°C
Dew
Point
Rel
Hum
%
Delta-T
°C
Wind Press
QNH
hPa
Press
MSL
hPa
Rain
since 9 am
mm
Dir
 
Spd
km/h
Gust
km/h
Spd
kts
Gust
kts
24/10:30pm 21.4 19.1 9.1 45 6.6 NNE 11 13 6 7 1015.9 - 0.0
24/10:00pm 21.3 18.7 9.2 46 6.5 ENE 13 15 7 8 1016.2 - 0.0
24/09:30pm 21.5 18.9 9.5 46 6.5 ENE 13 17 7 9 1016.0 - 0.0
24/09:00pm 22.3 19.3 9.2 43 7.1 NE 15 19 8 10 1015.9 1015.3 0.0
24/08:30pm 21.9 18.7 9.8 46 6.6 ESE 17 19 9 10 1015.5 - 0.0
24/08:00pm 21.6 19.1 9.6 46 6.5 E 13 17 7 9 1015.3 - 0.0
24/07:30pm 23.5 20.8 8.9 39 7.9 ESE 13 17 7 9 1015.2 - 0.0
24/07:00pm 23.7 22.3 10.9 44 7.2 ESE 9 11 5 6 1014.8 - 0.0
24/06:30pm 23.7 22.5 10.4 43 7.4 SE 7 11 4 6 1014.7 - 0.0
24/06:00pm 24.1 22.5 10.3 41 7.7 SSW 9 11 5 6 1014.4 1013.8 0.0
24/05:30pm 25.6 22.2 9.0 35 9.1 SW 17 26 9 14 1014.1 - 0.0
24/05:00pm 28.3 27.9 8.3 28 11.0 CALM 0 0 0 0 1013.7 - 0.0
24/04:30pm 28.9 27.0 6.8 24 11.9 WNW 6 9 3 5 1013.5 - 0.0
24/04:00pm 29.6 27.3 5.6 22 12.7 NW 7 11 4 6 1013.4 - 0.0
24/03:30pm 29.9 27.2 5.6 21 12.9 NW 9 19 5 10 1013.5 - 0.0
24/03:00pm 29.7 26.9 5.2 21 12.9 N 9 15 5 8 1013.6 1013.0 0.0
24/02:30pm 29.9 26.6 6.5 23 12.6 N 13 22 7 12 1013.8 - 0.0
24/02:00pm 30.2 26.8 6.1 22 12.9 N 13 19 7 10 1014.0 - 0.0
24/01:30pm 29.7 25.5 5.5 21 12.8 NNW 17 26 9 14 1014.4 - 0.0
24/01:00pm 29.1 25.1 6.5 24 12.1 N 17 28 9 15 1014.9 - 0.0
24/12:30pm 29.2 26.0 6.7 24 12.1 NW 13 20 7 11 1015.5 - 0.0
24/12:00pm 28.5 26.0 8.1 27 11.2 NW 11 19 6 10 1016.0 1015.4 0.0
24/11:30am 28.1 24.9 9.8 31 10.3 N 17 26 9 14 1016.4 - 0.0
24/11:00am 26.9 23.4 10.2 35 9.4 N 19 26 10 14 1016.9 - 0.0
24/10:30am 26.0 22.8 11.1 39 8.5 N 19 20 10 11 1017.3 - 0.0
24/10:00am 24.9 22.6 11.6 43 7.6 N 15 20 8 11 1017.6 - 0.0
24/09:30am 23.8 21.2 11.9 47 6.8 NNE 17 24 9 13 1017.6 - 0.0
24/09:00am 22.2 18.9 11.5 50 6.0 NNE 20 28 11 15 1017.5 1016.9 0.0
24/08:30am 21.1 17.5 11.9 55 5.2 NNE 22 28 12 15 1017.5 - 0.0
24/08:00am 19.5 16.1 11.4 59 4.5 NE 20 26 11 14 1017.2 - 0.0
24/07:30am 18.1 15.5 10.7 62 4.0 NE 15 19 8 10 1017.0 - 0.0
24/07:00am 16.1 12.9 10.1 67 3.2 ENE 17 20 9 11 1016.7 - 0.0
24/06:30am 15.7 13.1 9.4 66 3.3 NE 13 15 7 8 1016.7 - 0.0
24/06:00am 14.9 11.6 9.5 70 2.8 NE 17 20 9 11 1016.4 1015.9 0.0
24/05:30am 16.3 13.7 9.2 63 3.7 NE 13 15 7 8 1016.2 - 0.0
24/05:00am 16.1 13.1 9.4 64 3.5 NE 15 17 8 9 1016.0 - 0.0
24/04:30am 16.0 13.4 9.3 64 3.5 ENE 13 19 7 10 1015.8 - 0.0
24/04:00am 16.3 14.2 9.9 66 3.4 ENE 11 17 6 9 1015.9 - 0.0
24/03:30am 16.3 13.3 9.4 63 3.6 ENE 15 17 8 9 1015.5 - 0.0
24/03:00am 16.7 13.6 8.8 59 4.1 NE 15 17 8 9 1015.4 1014.8 0.0
24/02:30am 16.5 13.8 8.8 60 4.0 ENE 13 15 7 8 1015.4 - 0.0
24/02:00am 16.1 13.5 9.2 63 3.6 NE 13 13 7 7 1015.4 - 0.0
24/01:30am 16.9 14.3 9.5 61 3.9 NE 13 13 7 7 1015.7 - 0.0
24/01:00am 18.2 15.9 8.9 54 4.9 NNE 11 13 6 7 1015.9 - 0.0
24/12:30am 18.5 16.5 8.8 53 5.1 NNE 9 11 5 6 1016.1 - 0.0
24/12:00am 18.9 16.1 8.6 51 5.4 NNE 13 15 7 8 1016.1 1015.5 0.0
 
Date/Time
EST
Temp
°C
App
Temp
°C
Dew
Point
Rel
Hum
%
Delta-T
°C
Wind Press
QNH
hPa
Press
MSL
hPa
Rain
since 9 am
mm
Dir
 
Spd
km/h
Gust
km/h
Spd
kts
Gust
kts
23/11:30pm 19.3 16.5 8.4 49 5.7 NNE 13 15 7 8 1016.2 - 0.0
23/11:00pm 19.5 16.6 8.2 48 5.9 NNE 13 15 7 8 1016.2 - 0.0
23/10:30pm 19.7 16.8 8.2 47 6.0 NNE 13 15 7 8 1016.2 - 0.0
23/10:00pm 20.3 17.4 8.3 46 6.3 NNE 13 15 7 8 1016.2 - 0.0
23/09:30pm 20.6 17.7 8.2 45 6.5 NNE 13 13 7 7 1016.2 - 0.0
23/09:00pm 21.3 18.4 8.0 42 7.0 NNE 13 13 7 7 1016.1 1015.5 0.0
23/08:30pm 21.2 18.3 8.1 43 6.9 NNE 13 13 7 7 1016.2 - 0.0
23/08:00pm 20.5 17.8 8.8 47 6.2 NE 13 15 7 8 1016.0 - 0.0
23/07:30pm 21.8 19.7 9.7 46 6.6 NNE 11 11 6 6 1015.8 - 0.0
23/07:00pm 22.7 20.8 9.0 41 7.4 NNE 9 11 5 6 1015.6 - 0.0
23/06:30pm 23.8 21.9 8.9 38 8.1 N 9 11 5 6 1015.6 - 0.0
23/06:00pm 24.7 22.8 9.2 37 8.5 N 9 9 5 5 1015.4 1014.8 0.0
23/05:30pm 26.3 24.0 7.5 30 10.1 NNW 9 13 5 7 1015.1 - 0.0
23/05:00pm 27.9 23.7 5.9 24 11.6 NW 17 22 9 12 1014.9 - 0.0
23/04:30pm 29.0 25.9 5.7 23 12.3 NNW 11 17 6 9 1014.8 - 0.0
23/04:00pm 28.9 25.1 5.9 23 12.2 NNW 15 19 8 10 1014.8 - 0.0
23/03:30pm 29.1 25.4 6.5 24 12.1 NNW 15 28 8 15 1015.0 - 0.0
23/03:00pm 29.3 24.9 6.6 24 12.2 NNW 19 30 10 16 1014.9 1014.3 0.0
23/02:30pm 29.7 26.9 8.7 27 11.7 NNW 13 19 7 10 1015.1 - 0.0
23/02:00pm 29.2 26.7 8.4 27 11.5 NW 11 20 6 11 1015.3 - 0.0
23/01:30pm 28.8 24.7 8.8 28 11.1 N 20 32 11 17 1015.5 - 0.0
23/01:00pm 28.3 25.6 10.4 32 10.2 N 15 22 8 12 1015.9 - 0.0
23/12:30pm 28.0 24.5 8.9 30 10.6 N 17 26 9 14 1016.6 - 0.0
23/12:00pm 28.1 23.7 10.3 33 10.1 N 24 30 13 16 1017.1 1016.6 0.0
23/11:30am 26.6 23.1 11.0 37 8.9 N 20 28 11 15 1018.1 - 0.0
23/11:00am 26.2 24.6 12.7 43 7.9 N 13 19 7 10 1018.7 - 0.0
23/10:30am 24.7 22.0 12.9 47 6.9 N 19 26 10 14 1019.3 - 0.0
23/10:00am 23.6 21.0 13.3 52 6.0 N 19 26 10 14 1019.7 - 0.0
23/09:30am 22.1 19.1 12.7 55 5.4 N 20 26 11 14 1019.8 - 0.0
23/09:00am 21.6 19.1 12.3 55 5.3 N 17 20 9 11 1020.0 1019.4 0.0
23/08:30am 20.8 17.7 11.5 55 5.2 NNE 19 22 10 12 1020.1 - 0.0
23/08:00am 19.3 17.2 11.1 59 4.5 NE 13 19 7 10 1019.8 - 0.0
23/07:30am 17.7 14.7 10.7 63 3.8 NE 17 20 9 11 1019.6 - 0.0
23/07:00am 16.6 13.5 10.2 66 3.4 NE 17 19 9 10 1019.5 - 0.0
23/06:30am 16.0 13.3 10.2 68 3.1 NE 15 17 8 9 1019.2 - 0.0
23/06:00am 16.5 13.2 9.7 64 3.6 NE 17 17 9 9 1018.8 1018.2 0.0
23/05:30am 16.1 13.1 9.4 64 3.5 NE 15 17 8 9 1018.6 - 0.0
23/05:00am 16.1 14.0 9.8 66 3.3 NE 11 13 6 7 1018.6 - 0.0
23/04:30am 16.3 14.6 9.9 66 3.4 NE 9 11 5 6 1018.4 - 0.0
23/04:00am 16.9 16.4 10.6 66 3.4 ENE 4 7 2 4 1018.0 - 0.0
23/03:30am 17.1 16.4 10.0 63 3.8 SE 4 9 2 5 1017.9 - 0.0
23/03:00am 17.6 15.9 9.9 60 4.1 SW 9 13 5 7 1017.8 1017.2 0.0
23/02:30am 18.3 15.3 9.4 56 4.7 NNE 15 22 8 12 1017.3 - 0.0
23/02:00am 18.5 14.8 9.5 55 4.8 NNE 19 24 10 13 1017.2 - 0.0
23/01:30am 19.1 15.3 9.8 55 5.0 NNE 20 24 11 13 1017.3 - 0.0
23/01:00am 19.3 15.6 10.0 55 5.0 NNE 20 26 11 14 1017.7 - 0.0
23/12:30am 19.5 16.2 9.6 52 5.3 NNE 17 19 9 10 1017.5 - 0.0
23/12:00am 19.7 16.7 9.4 51 5.5 NNE 15 19 8 10 1017.3 1016.8 0.0
 
Date/Time
EST
Temp
°C
App
Temp
°C
Dew
Point
Rel
Hum
%
Delta-T
°C
Wind Press
QNH
hPa
Press
MSL
hPa
Rain
since 9 am
mm
Dir
 
Spd
km/h
Gust
km/h
Spd
kts
Gust
kts
22/11:30pm 19.7 16.8 9.6 52 5.4 NNE 15 17 8 9 1017.5 - 0.0
22/11:00pm 19.8 16.9 9.8 52 5.4 NNE 15 17 8 9 1017.6 - 0.0
22/10:30pm 20.0 17.2 10.0 52 5.4 NNE 15 15 8 8 1017.7 - 0.0
22/10:00pm 20.7 18.2 9.8 49 5.9 NNE 13 15 7 8 1017.7 - 0.0
22/09:30pm 21.3 18.4 9.7 47 6.3 NNE 15 17 8 9 1017.7 - 0.0
22/09:00pm 21.9 19.0 9.6 45 6.7 NNE 15 19 8 10 1017.6 1017.0 0.0
22/08:30pm 22.2 19.3 9.7 45 6.8 N 15 17 8 9 1017.6 - 0.0
22/08:00pm 22.3 19.9 9.9 45 6.8 NNE 13 15 7 8 1017.6 - 0.0
22/07:30pm 22.9 21.0 10.5 45 6.9 N 11 15 6 8 1017.5 - 0.0
22/07:00pm 23.6 21.6 10.3 43 7.4 N 11 13 6 7 1017.2 - 0.0
22/06:30pm 24.4 22.5 10.4 41 7.8 N 11 11 6 6 1016.9 - 0.0
22/06:00pm 25.0 23.0 10.3 39 8.2 N 11 13 6 7 1016.8 1016.3 0.0
22/05:30pm 26.3 24.3 10.1 36 9.1 N 11 15 6 8 1016.6 - 0.0
22/05:00pm 28.0 25.5 9.7 31 10.3 NNW 13 19 7 10 1016.5 - 0.0
22/04:30pm 28.3 25.5 9.9 31 10.4 NNW 15 19 8 10 1016.5 - 0.0
22/04:00pm 28.4 25.3 9.0 29 10.8 NW 15 24 8 13 1016.4 - 0.0
22/03:30pm 28.4 25.5 9.5 30 10.6 NNW 15 28 8 15 1016.7 - 0.0
22/03:00pm 28.4 25.2 9.8 31 10.5 N 17 24 9 13 1016.8 1016.3 0.0
22/02:30pm 29.3 26.1 9.9 30 11.0 NW 17 24 9 13 1017.0 - 0.0
22/02:00pm 29.0 25.4 9.7 30 10.9 NNW 19 26 10 14 1017.2 - 0.0
22/01:30pm 28.9 25.8 10.3 31 10.6 N 17 26 9 14 1017.7 - 0.0
22/01:00pm 28.2 24.3 10.9 34 9.9 NNW 22 32 12 17 1018.1 - 0.0
22/12:30pm 27.8 24.4 11.3 35 9.5 N 20 30 11 16 1018.6 - 0.0
22/12:00pm 26.7 22.9 11.1 37 8.9 N 22 30 12 16 1019.3 1018.7 0.0
22/11:30am 26.5 23.3 12.0 40 8.4 N 20 26 11 14 1019.8 - 0.0
22/11:00am 25.5 22.2 11.7 42 7.9 NNW 20 28 11 15 1020.4 - 0.0
22/10:30am 24.3 21.7 11.9 45 7.1 N 17 26 9 14 1020.6 - 0.0
22/10:00am 23.4 19.3 11.6 47 6.7 N 24 28 13 15 1020.7 - 0.0
22/09:30am 22.8 18.5 11.9 50 6.2 N 26 33 14 18 1020.8 - 0.0
22/09:00am 22.6 19.0 12.0 51 6.0 N 22 32 12 17 1020.9 1020.4 0.0
22/08:30am 20.6 16.6 11.7 56 5.0 N 24 32 13 17 1020.8 - 0.0
22/08:00am 19.7 15.6 11.4 58 4.6 N 24 33 13 18 1020.5 - 0.0
22/07:30am 17.4 13.9 10.1 62 3.9 NNE 19 26 10 14 1020.3 - 0.0
22/07:00am 15.4 12.0 9.2 66 3.2 NE 17 24 9 13 1020.0 - 0.0
22/06:30am 14.5 10.5 8.2 66 3.2 NE 19 24 10 13 1019.7 - 0.0
22/06:00am 13.1 9.2 6.9 66 3.0 ENE 17 19 9 10 1019.7 1019.1 0.0
22/05:30am 12.0 8.2 5.9 66 2.9 ENE 15 19 8 10 1019.5 - 0.0
22/05:00am 11.9 7.1 5.7 66 2.9 ENE 20 26 11 14 1019.4 - 0.0
22/04:30am 12.5 6.9 5.5 62 3.3 E 24 30 13 16 1019.3 - 0.0
22/04:00am 12.6 7.4 5.4 61 3.4 E 22 28 12 15 1019.3 - 0.0
22/03:30am 11.4 6.6 5.4 66 2.8 E 20 26 11 14 1019.0 - 0.0
22/03:00am 11.5 8.2 4.7 63 3.1 E 11 15 6 8 1018.9 1018.3 0.0
22/02:30am 12.6 8.8 4.0 56 3.9 E 13 15 7 8 1018.8 - 0.0
22/02:00am 13.0 9.2 4.0 54 4.1 E 13 15 7 8 1018.9 - 0.0
22/01:30am 13.3 9.5 3.9 53 4.3 E 13 15 7 8 1019.1 - 0.0
22/01:00am 14.3 11.3 4.2 50 4.7 SE 9 11 5 6 1019.1 - 0.0
22/12:30am 14.8 11.0 4.0 48 5.0 ESE 13 17 7 9 1019.4 - 0.0
22/12:00am 13.9 10.6 4.4 52 4.4 ESE 11 15 6 8 1019.5 1018.9 0.0
 
Date/Time
EST
Temp
°C
App
Temp
°C
Dew
Point
Rel
Hum
%
Delta-T
°C
Wind Press
QNH
hPa
Press
MSL
hPa
Rain
since 9 am
mm
Dir
 
Spd
km/h
Gust
km/h
Spd
kts
Gust
kts
21/11:30pm 15.4 11.6 3.7 45 5.4 SE 13 15 7 8 1019.5 - 0.0
21/11:00pm 14.3 11.4 4.7 52 4.5 ESE 9 13 5 7 1019.6 - 0.0

Other Formats:

Comma delimited format used in spreadsheet applications
http://www.bom.gov.au/fwo/IDN60801/IDN60801.95527.axf

JavaScript Object Notation format (JSON) in row-major order
http://www.bom.gov.au/fwo/IDN60801/IDN60801.95527.json